Time;durP1;ratioP1;P1;durP2;ratioP2;P2;SDS_P1;SDS_P2;PMS_P1;PMS_P2;Temp;Humidity;BMP_temperature;BMP_pressure;BME280_temperature;BME280_humidity;BME280_pressure;Samples;Min_cycle;Max_cycle;Signal;HPM_P1;HPM_P2
2022/08/11 00:00:11;;;;;;;3.90;2.00;;;;;;;18.13;86.23;99360.56;1805519;80;21025;-84
2022/08/11 00:02:43;;;;;;;4.45;2.10;;;;;;;18.11;86.39;99361.11;1778690;80;21007;-86
2022/08/11 00:05:16;;;;;;;5.45;2.45;;;;;;;18.09;86.61;99353.30;1788073;80;21481;-84
2022/08/11 00:07:46;;;;;;;2.72;1.85;;;;;;;18.10;85.90;99363.34;1780089;80;20991;-84
2022/08/11 00:10:18;;;;;;;5.67;2.20;;;;;;;18.04;86.30;99357.93;1787200;80;21006;-84
2022/08/11 00:12:52;;;;;;;3.45;1.60;;;;;;;18.04;86.63;99359.24;1780560;80;20999;-85
2022/08/11 00:15:19;;;;;;;3.83;1.72;;;;;;;18.05;86.45;99354.86;1757788;81;20959;-84
2022/08/11 00:17:48;;;;;;;3.30;1.85;;;;;;;18.05;85.90;99353.06;1759166;81;21078;-85
2022/08/11 00:20:16;;;;;;;4.72;1.85;;;;;;;18.07;86.10;99354.31;1752354;81;21033;-85
2022/08/11 00:22:45;;;;;;;5.58;2.17;;;;;;;18.05;85.85;99353.06;1770480;81;21006;-83
2022/08/11 00:25:17;;;;;;;2.52;1.50;;;;;;;18.06;86.27;99356.09;1774091;80;21070;-85
2022/08/11 00:27:45;;;;;;;4.28;1.60;;;;;;;18.05;86.16;99355.70;1769410;81;21026;-85
2022/08/11 00:30:14;;;;;;;3.47;2.17;;;;;;;18.02;85.62;99357.16;1793275;80;20986;-85
2022/08/11 00:32:45;;;;;;;7.05;1.98;;;;;;;17.99;85.65;99353.86;1789081;80;20991;-85
2022/08/11 00:35:16;;;;;;;2.67;1.82;;;;;;;17.97;86.34;99356.56;1769108;81;20994;-85
2022/08/11 00:37:49;;;;;;;6.95;1.80;;;;;;;17.99;86.03;99360.44;1749011;81;21025;-84
2022/08/11 00:40:30;;;;;;;5.12;2.00;;;;;;;18.00;85.84;99356.86;1747945;81;21079;-85
2022/08/11 00:43:29;;;;;;;5.03;1.80;;;;;;;17.99;86.82;99360.44;1726381;82;20971;-84
2022/08/11 00:46:22;;;;;;;3.00;1.67;;;;;;;17.95;86.36;99361.52;1737968;82;21003;-84
2022/08/11 00:49:32;;;;;;;3.37;1.80;;;;;;;17.93;85.82;99360.75;1702330;83;21027;-85
2022/08/11 00:52:17;;;;;;;3.10;1.80;;;;;;;17.91;86.16;99363.92;1705116;84;21000;-85
2022/08/11 00:55:10;;;;;;;5.50;2.00;;;;;;;17.87;87.30;99361.91;1768489;81;21041;-85
2022/08/11 00:58:32;;;;;;;5.55;2.22;;;;;;;17.89;86.44;99356.11;1721437;82;22453;-85
2022/08/11 01:01:19;;;;;;;3.35;1.75;;;;;;;17.91;86.08;99362.61;1766136;81;21557;-84
2022/08/11 01:04:33;;;;;;;5.28;2.12;;;;;;;17.88;86.62;99359.65;1750460;81;21072;-86
2022/08/11 01:07:41;;;;;;;9.58;2.20;;;;;;;17.90;86.53;99359.11;1752967;81;21059;-84
2022/08/11 01:10:54;;;;;;;2.98;1.85;;;;;;;17.89;87.00;99357.42;1768073;81;21018;-85
2022/08/11 01:13:55;;;;;;;4.53;2.02;;;;;;;17.89;86.92;99355.63;1768799;81;21001;-85
2022/08/11 01:17:05;;;;;;;3.08;1.95;;;;;;;17.91;86.89;99352.94;1768849;81;20999;-85
2022/08/11 01:24:01;;;;;;;2.85;1.77;;;;;;;17.92;86.34;99354.62;1758509;80;21033;-85
2022/08/11 01:27:22;;;;;;;3.33;2.00;;;;;;;17.92;86.96;99352.46;1757306;81;21031;-84
2022/08/11 01:34:19;;;;;;;5.22;2.00;;;;;;;17.86;86.94;99339.16;1766531;81;20996;-84
2022/08/11 01:37:07;;;;;;;3.30;1.98;;;;;;;17.85;86.75;99344.89;1766787;81;21043;-86
2022/08/11 01:40:15;;;;;;;4.65;2.30;;;;;;;17.82;87.50;99337.58;1750783;81;21025;-85
2022/08/11 01:45:53;;;;;;;5.08;2.25;;;;;;;17.77;88.13;99344.40;1747357;82;21063;-84
2022/08/11 01:48:25;;;;;;;5.08;2.27;;;;;;;17.76;87.91;99337.42;1758053;81;21092;-84
2022/08/11 01:51:40;;;;;;;3.47;2.05;;;;;;;17.80;88.04;99344.70;1748962;81;20993;-85
2022/08/11 01:54:21;;;;;;;4.15;2.20;;;;;;;17.77;87.66;99341.77;1770613;81;21045;-84
2022/08/11 01:56:59;;;;;;;7.03;2.00;;;;;;;17.70;88.10;99341.68;1712942;82;21040;-85
2022/08/11 01:59:47;;;;;;;3.50;2.20;;;;;;;17.65;88.37;99341.92;1792209;80;21009;-85
2022/08/11 02:02:46;;;;;;;4.58;2.20;;;;;;;17.64;87.26;99346.78;1771509;81;21542;-84
2022/08/11 02:05:49;;;;;;;7.17;2.45;;;;;;;17.58;87.80;99340.52;1743359;82;21006;-85
2022/08/11 02:08:48;;;;;;;4.17;2.25;;;;;;;17.59;87.91;99338.77;1738259;82;21065;-85
2022/08/11 02:11:32;;;;;;;4.25;2.40;;;;;;;17.61;88.15;99340.38;1767981;81;21005;-85
2022/08/11 02:14:22;;;;;;;4.10;2.12;;;;;;;17.62;88.24;99346.48;1784965;80;21050;-85
2022/08/11 02:17:17;;;;;;;8.63;2.27;;;;;;;17.63;87.15;99335.05;1800970;80;20994;-85
2022/08/11 02:26:15;;;;;;;4.35;2.33;;;;;;;17.68;87.40;99332.55;1784011;80;21081;-84
2022/08/11 02:29:05;;;;;;;4.70;2.20;;;;;;;17.68;88.01;99327.77;1778644;80;21064;-85
2022/08/11 02:34:55;;;;;;;5.60;2.20;;;;;;;17.71;87.69;99326.30;1769578;81;21021;-85
2022/08/11 02:37:36;;;;;;;5.62;2.20;;;;;;;17.73;88.32;99338.07;1752105;81;20999;-85
2022/08/11 02:40:42;;;;;;;4.22;2.00;;;;;;;17.73;87.77;99335.44;1791617;80;21011;-84
2022/08/11 02:43:50;;;;;;;4.62;2.10;;;;;;;17.72;87.75;99333.25;1790185;80;21022;-84
2022/08/11 02:46:37;;;;;;;4.03;2.17;;;;;;;17.72;87.93;99333.72;1769526;81;20995;-85
2022/08/11 02:52:32;;;;;;;4.37;1.95;;;;;;;17.66;87.97;99339.66;1752640;81;20987;-85
2022/08/11 02:55:31;;;;;;;9.95;2.30;;;;;;;17.60;87.00;99336.03;1743362;82;20935;-85
2022/08/11 02:58:16;;;;;;;5.97;2.12;;;;;;;17.58;87.06;99337.05;1743202;81;21043;-86
2022/08/11 03:01:00;;;;;;;6.58;2.20;;;;;;;17.53;87.47;99338.59;1729888;83;21137;-85
2022/08/11 03:03:38;;;;;;;5.17;1.85;;;;;;;17.47;87.99;99341.06;1766711;81;21050;-86
2022/08/11 03:06:15;;;;;;;6.20;2.10;;;;;;;17.43;87.53;99344.77;1771626;81;20990;-86
2022/08/11 03:09:05;;;;;;;3.58;2.12;;;;;;;17.38;88.19;99348.08;1773260;81;21073;-85
2022/08/11 03:17:33;;;;;;;7.62;2.10;;;;;;;17.34;88.01;99346.52;1793964;80;20993;-85
2022/08/11 03:20:16;;;;;;;3.80;2.10;;;;;;;17.36;87.77;99349.08;1750759;81;21005;-85
2022/08/11 03:23:03;;;;;;;;;;;;;;;17.37;88.62;99341.13;1745280;82;21051;-85
2022/08/11 03:26:00;;;;;;;3.87;1.98;;;;;;;17.39;87.90;99337.97;1771339;81;20189;-85
2022/08/11 03:29:09;;;;;;;7.28;2.40;;;;;;;17.38;88.07;99342.81;1771060;81;21042;-86
2022/08/11 03:32:01;;;;;;;6.75;2.12;;;;;;;17.40;88.26;99345.37;1770088;81;21568;-85
2022/08/11 03:34:31;;;;;;;6.78;2.10;;;;;;;17.38;88.16;99343.29;1758142;81;21038;-85
2022/08/11 03:37:53;;;;;;;7.00;2.75;;;;;;;17.39;87.68;99355.05;1762773;81;20990;-85
2022/08/11 03:43:48;;;;;;;8.78;2.70;;;;;;;17.37;87.90;99348.14;1770902;81;21538;-85
2022/08/11 03:46:44;;;;;;;7.20;2.40;;;;;;;17.37;88.37;99344.20;1770443;81;21013;-85
2022/08/11 03:49:24;;;;;;;7.58;2.27;;;;;;;17.37;87.58;99349.02;1769513;81;20986;-85
2022/08/11 03:52:17;;;;;;;5.58;2.27;;;;;;;17.41;88.16;99345.78;1765687;81;20975;-85
2022/08/11 03:55:01;;;;;;;3.85;2.22;;;;;;;17.44;87.98;99345.14;1740681;81;21046;-85
2022/08/11 03:57:51;;;;;;;3.65;2.20;;;;;;;17.52;87.39;99339.98;1770207;81;21624;-85
2022/08/11 04:00:44;;;;;;;4.90;2.20;;;;;;;17.48;87.78;99336.17;1736472;81;21070;-85
2022/08/11 04:03:28;;;;;;;6.12;2.27;;;;;;;17.48;87.46;99327.45;1711745;82;21054;-85
2022/08/11 04:06:24;;;;;;;4.12;2.20;;;;;;;17.48;87.78;99328.77;1749730;81;21088;-85
2022/08/11 04:09:45;;;;;;;7.53;2.52;;;;;;;17.45;87.61;99330.25;1769925;81;21034;-86
2022/08/11 04:12:54;;;;;;;5.12;2.40;;;;;;;17.45;87.26;99336.81;1770494;81;21022;-86
2022/08/11 04:16:01;;;;;;;5.60;2.55;;;;;;;17.40;87.89;99334.87;1769173;81;21018;-85
2022/08/11 04:18:52;;;;;;;4.12;2.05;;;;;;;17.42;87.67;99326.44;1795769;80;21049;-85
2022/08/11 04:22:06;;;;;;;5.80;2.10;;;;;;;17.44;87.17;99324.59;1802015;79;20982;-85
2022/08/11 04:25:13;;;;;;;4.87;2.25;;;;;;;17.41;86.73;99330.02;1802373;79;21010;-85
2022/08/11 04:28:36;;;;;;;2.95;1.70;;;;;;;17.40;86.63;99327.83;1752369;81;21037;-84
2022/08/11 04:31:38;;;;;;;10.28;2.40;;;;;;;17.39;86.35;99330.52;1765785;80;20998;-87
2022/08/11 04:34:27;;;;;;;5.15;2.40;;;;;;;17.40;85.46;99338.80;1794498;80;20979;-86
2022/08/11 04:37:33;;;;;;;4.10;2.08;;;;;;;17.35;85.65;99327.66;1737405;80;20998;-85
2022/08/11 04:40:43;;;;;;;6.20;2.22;;;;;;;17.32;85.73;99327.83;1783293;80;20998;-85
2022/08/11 04:43:57;;;;;;;5.28;2.75;;;;;;;17.32;85.46;99337.02;1770500;81;21098;-85
2022/08/11 04:46:41;;;;;;;6.55;2.70;;;;;;;17.31;85.10;99340.13;1768275;81;21066;-84
2022/08/11 05:01:41;;;;;;;7.62;3.47;;;;;;;17.52;85.99;99338.20;1749067;81;20974;-85
2022/08/11 05:08:19;;;;;;;6.35;2.40;;;;;;;17.63;86.68;99346.88;1761419;81;20990;-85
2022/08/11 05:11:19;;;;;;;6.83;2.80;;;;;;;17.66;86.53;99350.66;1759476;81;21038;-85
2022/08/11 05:37:08;;;;;;;8.33;2.72;;;;;;;17.79;86.16;99341.70;1735748;80;21129;-88
2022/08/11 05:56:54;;;;;;;6.53;2.92;;;;;;;18.32;83.57;99348.59;1731772;82;20999;-84
2022/08/11 05:59:23;;;;;;;6.75;3.42;;;;;;;18.44;82.54;99351.05;1738225;82;21011;-84
2022/08/11 06:01:51;;;;;;;9.03;3.22;;;;;;;18.51;82.48;99346.32;1733373;82;21102;-84
2022/08/11 06:04:23;;;;;;;6.87;3.33;;;;;;;18.55;81.97;99353.96;1738805;81;21011;-81
2022/08/11 06:07:08;;;;;;;5.20;3.15;;;;;;;18.62;81.89;99357.10;1741748;81;21018;-83
2022/08/11 06:09:49;;;;;;;6.20;3.47;;;;;;;18.68;81.54;99352.38;1738315;81;21059;-83
2022/08/11 06:12:23;;;;;;;7.03;3.50;;;;;;;18.76;81.73;99345.37;1737711;82;21054;-82
2022/08/11 06:14:56;;;;;;;9.33;3.40;;;;;;;18.89;81.08;99352.16;1740217;81;21996;-80
2022/08/11 06:17:34;;;;;;;7.25;2.87;;;;;;;18.96;80.65;99350.02;1735097;81;20996;-81
2022/08/11 06:20:11;;;;;;;9.80;2.77;;;;;;;19.05;78.83;99352.99;1738130;81;21078;-83
2022/08/11 06:22:41;;;;;;;7.45;2.95;;;;;;;19.11;77.45;99355.76;1741541;81;21054;-81
2022/08/11 06:25:09;;;;;;;9.70;3.52;;;;;;;19.20;77.88;99351.74;1738371;82;21051;-82
2022/08/11 06:27:38;;;;;;;6.12;2.90;;;;;;;19.27;77.35;99347.36;1738719;82;21542;-81
2022/08/11 06:30:12;;;;;;;7.95;3.08;;;;;;;19.42;76.25;99362.78;1734393;82;21460;-88
2022/08/11 06:32:36;;;;;;;6.03;3.10;;;;;;;19.43;75.29;99356.56;1735010;82;21513;-85
2022/08/11 06:35:20;;;;;;;5.40;2.75;;;;;;;19.48;73.91;99360.27;1734936;82;21038;-81
2022/08/11 06:38:05;;;;;;;;;;;;;;;19.51;73.87;99356.13;1705850;84;21024;-83
2022/08/11 06:43:33;;;;;;;10.80;3.15;;;;;;;19.61;73.40;99357.28;1670317;82;21149;-86
2022/08/11 06:46:05;;;;;;;4.55;2.65;;;;;;;19.64;73.11;99361.08;1717375;82;21011;-84
2022/08/11 06:48:33;;;;;;;4.87;2.33;;;;;;;19.70;73.68;99358.55;1719900;82;21135;-85
2022/08/11 06:51:13;;;;;;;4.35;2.65;;;;;;;19.81;73.72;99348.70;1719028;82;20988;-85
2022/08/11 06:53:50;;;;;;;7.30;2.72;;;;;;;19.91;73.98;99350.33;1716733;82;21019;-85
2022/08/11 07:02:26;;;;;;;4.15;2.45;;;;;;;20.18;71.33;99352.64;1711392;84;21057;-83
2022/08/11 07:05:07;;;;;;;5.37;2.40;;;;;;;20.29;70.57;99356.41;1689120;83;21056;-86
2022/08/11 07:16:51;;;;;;;3.95;2.47;;;;;;;20.63;66.56;99345.95;1705604;83;21044;-85
2022/08/11 07:31:20;;;;;;;5.45;2.50;;;;;;;21.04;66.05;99338.52;1731558;83;21115;-84
2022/08/11 07:34:00;;;;;;;6.72;2.83;;;;;;;21.08;64.49;99329.45;1684507;85;21016;-86
2022/08/11 07:36:29;;;;;;;7.12;2.27;;;;;;;21.15;65.17;99328.11;1689855;83;21035;-85
2022/08/11 07:38:58;;;;;;;4.25;2.50;;;;;;;21.24;64.68;99335.42;1691251;84;21018;-85
2022/08/11 07:41:27;;;;;;;7.45;2.77;;;;;;;21.30;64.23;99330.22;1688678;83;20999;-85
2022/08/11 07:44:07;;;;;;;5.85;2.70;;;;;;;21.37;64.57;99337.29;1673624;85;21087;-86
2022/08/11 07:54:44;;;;;;;6.00;2.42;;;;;;;21.71;64.48;99324.49;1710088;80;20975;-88
2022/08/11 08:19:21;;;;;;;4.05;2.42;;;;;;;22.18;58.71;99319.04;1724886;82;21092;-86
2022/08/11 08:21:49;;;;;;;4.10;2.37;;;;;;;22.27;60.67;99313.14;1720364;83;21004;-83
2022/08/11 08:24:21;;;;;;;6.95;2.30;;;;;;;22.30;58.39;99307.62;1733815;81;21010;-84
2022/08/11 08:26:59;;;;;;;7.70;2.65;;;;;;;22.36;57.62;99311.19;1716812;82;21050;-81
2022/08/11 08:32:22;;;;;;;3.92;2.70;;;;;;;22.47;58.01;99311.73;1717295;82;20981;-81
2022/08/11 08:34:51;;;;;;;5.08;2.83;;;;;;;22.58;59.10;99309.19;1730834;81;20999;-84
2022/08/11 08:37:19;;;;;;;5.37;2.95;;;;;;;22.66;59.07;99307.31;1729668;82;21047;-85
2022/08/11 08:39:47;;;;;;;4.60;2.52;;;;;;;22.75;58.74;99309.77;1734471;81;21077;-83
2022/08/11 08:42:19;;;;;;;4.00;2.40;;;;;;;22.80;58.35;99307.16;1718943;82;21053;-83
2022/08/11 08:45:00;;;;;;;4.33;2.40;;;;;;;22.86;56.69;99309.84;1715701;82;21093;-84
2022/08/11 08:47:29;;;;;;;3.92;2.20;;;;;;;22.93;57.93;99304.45;1732968;82;21012;-85
2022/08/11 08:50:12;;;;;;;3.87;2.20;;;;;;;23.03;58.14;99302.84;1734085;81;21072;-82
2022/08/11 08:52:45;;;;;;;6.72;2.27;;;;;;;23.05;57.19;99290.81;1684572;82;21969;-83
2022/08/11 08:55:17;;;;;;;5.03;1.90;;;;;;;23.06;56.84;99303.12;1730961;83;21490;-83
2022/08/11 08:57:46;;;;;;;6.97;2.27;;;;;;;23.15;57.56;99296.28;1718448;82;22217;-85
2022/08/11 09:00:18;;;;;;;8.53;2.40;;;;;;;23.25;56.98;99291.14;1696227;83;21089;-85
2022/08/11 09:02:45;;;;;;;9.08;3.77;;;;;;;23.35;56.67;99293.47;1710548;83;21032;-84
2022/08/11 09:05:13;;;;;;;4.15;2.60;;;;;;;23.36;56.04;99289.88;1713281;82;21022;-84
2022/08/11 09:07:40;;;;;;;4.33;2.08;;;;;;;23.35;55.35;99297.45;1701175;81;21080;-81
2022/08/11 09:10:10;;;;;;;4.97;2.55;;;;;;;23.45;56.45;99285.18;1734056;81;21717;-85
2022/08/11 09:12:41;;;;;;;5.75;2.30;;;;;;;23.55;55.45;99291.97;1732192;81;20995;-83
2022/08/11 09:15:10;;;;;;;3.95;1.90;;;;;;;23.57;54.49;99288.22;1715993;82;21585;-85
2022/08/11 09:17:55;;;;;;;3.30;2.10;;;;;;;23.65;54.90;99285.48;1732484;83;21463;-84
2022/08/11 09:20:24;;;;;;;3.27;2.00;;;;;;;23.71;55.06;99291.16;1740425;81;21132;-85
2022/08/11 09:28:29;;;;;;;3.22;2.00;;;;;;;24.15;54.74;99281.61;1733515;81;20929;-84
2022/08/11 09:30:59;;;;;;;4.33;2.25;;;;;;;24.21;52.38;99274.48;1708551;83;21710;-85
2022/08/11 09:33:28;;;;;;;3.98;2.42;;;;;;;24.33;53.50;99270.02;1718689;82;21002;-82
2022/08/11 09:35:56;;;;;;;3.02;2.00;;;;;;;24.47;53.71;99281.33;1732362;81;21052;-82
2022/08/11 09:41:13;;;;;;;3.05;1.85;;;;;;;24.52;52.01;99271.23;1734209;81;21073;-84
2022/08/11 09:46:34;;;;;;;6.65;2.10;;;;;;;24.55;51.04;99266.98;1705896;83;21531;-85
2022/08/11 09:49:03;;;;;;;4.58;2.00;;;;;;;24.61;50.82;99273.99;1693542;83;21785;-83
2022/08/11 09:51:32;;;;;;;4.03;2.02;;;;;;;24.72;51.10;99266.47;1731031;82;20982;-85
2022/08/11 09:54:06;;;;;;;3.35;1.98;;;;;;;24.86;51.23;99258.70;1719760;83;20969;-85
2022/08/11 09:59:22;;;;;;;4.53;1.80;;;;;;;24.96;50.11;99256.13;1716925;83;21019;-84
2022/08/11 10:02:02;;;;;;;3.52;1.80;;;;;;;25.06;50.55;99248.23;1731504;82;21009;-84
2022/08/11 10:04:45;;;;;;;6.30;1.90;;;;;;;25.12;50.21;99234.42;1717864;83;20979;-85
2022/08/11 10:07:18;;;;;;;3.62;1.92;;;;;;;25.11;50.06;99242.03;1696115;83;21107;-85
2022/08/11 10:10:04;;;;;;;3.77;1.80;;;;;;;25.12;47.05;99244.58;1716986;83;21007;-84
2022/08/11 10:12:37;;;;;;;7.83;2.02;;;;;;;25.17;48.44;99239.73;1712921;83;21017;-85
2022/08/11 10:21:03;;;;;;;2.98;2.02;;;;;;;25.24;47.96;99237.42;1733421;81;21054;-85
2022/08/11 10:34:48;;;;;;;3.33;1.82;;;;;;;25.73;47.10;99232.42;1713829;82;21035;-85
2022/08/11 10:37:16;;;;;;;4.00;1.62;;;;;;;25.85;47.64;99228.70;1691703;83;21064;-84
2022/08/11 10:39:44;;;;;;;4.20;1.82;;;;;;;25.92;47.23;99221.88;1688761;83;21123;-83
2022/08/11 10:45:00;;;;;;;2.22;1.45;;;;;;;25.97;46.78;99221.00;1721398;82;21088;-84
2022/08/11 10:47:34;;;;;;;3.80;1.75;;;;;;;25.98;44.65;99214.71;1718177;82;21044;-82
2022/08/11 11:01:10;;;;;;;3.60;1.80;;;;;;;26.20;44.55;99208.80;1686604;83;21088;-82
2022/08/11 11:03:37;;;;;;;3.33;1.62;;;;;;;26.31;44.38;99207.38;1728974;82;22107;-80
2022/08/11 11:06:39;;;;;;;3.50;1.80;;;;;;;26.49;45.13;99201.39;1718936;82;21071;-80
2022/08/11 11:09:18;;;;;;;2.55;1.60;;;;;;;26.64;44.92;99200.05;1686706;83;21093;-82
2022/08/11 11:20:45;;;;;;;3.25;1.90;;;;;;;27.10;40.02;99199.00;1712679;82;21037;-82
2022/08/11 11:23:27;;;;;;;2.33;1.50;;;;;;;27.15;39.47;99194.90;1712147;82;21038;-81
2022/08/11 11:26:15;;;;;;;2.67;1.60;;;;;;;27.21;41.70;99187.32;1717199;82;21682;-82
2022/08/11 11:28:56;;;;;;;4.78;1.80;;;;;;;27.36;42.46;99184.59;1733332;82;21062;-82
2022/08/11 11:31:53;;;;;;;3.35;1.70;;;;;;;27.56;41.88;99185.39;1716839;82;20998;-83
2022/08/11 11:35:02;;;;;;;3.62;1.75;;;;;;;27.72;40.36;99180.27;1695382;84;21016;-81
2022/08/11 11:37:34;;;;;;;2.98;1.80;;;;;;;27.95;41.98;99178.58;1677285;84;21001;-82
2022/08/11 11:40:14;;;;;;;3.02;1.65;;;;;;;28.20;41.70;99184.23;1701418;82;21092;-83
2022/08/11 11:42:43;;;;;;;3.42;1.90;;;;;;;28.41;41.85;99175.94;1719757;82;21008;-83
2022/08/11 11:45:18;;;;;;;1.92;1.40;;;;;;;28.56;41.34;99166.44;1694202;84;21040;-83
2022/08/11 11:47:51;;;;;;;4.75;1.80;;;;;;;28.59;39.50;99170.16;1688317;84;21015;-83
2022/08/11 11:50:18;;;;;;;2.47;1.57;;;;;;;28.65;38.22;99168.22;1714459;83;21544;-83
2022/08/11 11:52:44;;;;;;;3.12;1.87;;;;;;;28.62;39.38;99164.49;1727873;82;21038;-83
2022/08/11 11:55:11;;;;;;;2.95;1.70;;;;;;;28.78;39.50;99162.47;1713056;82;21039;-84
2022/08/11 12:03:11;;;;;;;5.87;1.80;;;;;;;29.00;36.56;99149.61;1709245;83;21019;-82
2022/08/11 12:05:40;;;;;;;5.28;1.70;;;;;;;29.21;38.47;99153.29;1714482;83;20984;-82
2022/08/11 12:13:45;;;;;;;2.85;1.62;;;;;;;29.86;38.15;99134.94;1699935;84;21901;-82
2022/08/11 12:16:15;;;;;;;3.08;1.70;;;;;;;30.07;37.84;99142.56;1708873;84;21030;-82
2022/08/11 12:18:45;;;;;;;3.27;1.40;;;;;;;30.19;37.44;99141.76;1714036;82;21052;-84
2022/08/11 12:21:14;;;;;;;4.17;1.70;;;;;;;30.20;33.74;99134.55;1713539;83;21049;-82
2022/08/11 12:29:18;;;;;;;3.90;1.95;;;;;;;30.93;35.80;99130.66;1718085;82;21016;-84
2022/08/11 12:31:46;;;;;;;4.75;1.70;;;;;;;31.49;31.33;99119.19;1712985;82;20996;-82
2022/08/11 12:34:15;;;;;;;2.52;1.40;;;;;;;31.92;33.08;99118.36;1727694;83;21018;-82
2022/08/11 12:36:50;;;;;;;2.58;1.55;;;;;;;32.60;34.36;99107.39;1717805;83;21024;-80
2022/08/11 12:45:26;;;;;;;2.70;1.60;;;;;;;33.29;34.31;99106.47;1700191;83;21036;-84
2022/08/11 12:51:55;;;;;;;2.75;1.50;;;;;;;34.72;30.34;99107.81;1651360;86;21039;-84
2022/08/11 12:52:48;;;;;;;2.72;1.40;;;;;;;33.63;30.36;99101.06;1664941;85;21023;-82
2022/08/11 12:58:14;;;;;;;2.65;1.47;;;;;;;33.26;29.43;99104.13;1661393;86;21069;-82
2022/08/11 13:06:08;;;;;;;5.05;1.25;;;;;;;34.47;29.22;99093.84;1704813;83;21062;-84
2022/08/11 13:08:38;;;;;;;4.92;1.50;;;;;;;35.02;28.88;99086.86;1757556;79;21101;-84
2022/08/11 13:13:55;;;;;;;1.55;1.30;;;;;;;36.03;27.32;99081.48;1769651;80;21034;-87
2022/08/11 13:17:19;;;;;;;3.05;1.62;;;;;;;36.57;25.10;99082.43;1772998;81;21018;-86
2022/08/11 13:19:03;;;;;;;6.35;3.10;;;;;;;36.91;25.61;99076.52;1767663;80;21366;-85
2022/08/11 13:21:30;;;;;;;4.28;1.50;;;;;;;37.28;26.09;99080.45;1761367;80;21061;-86
2022/08/11 13:23:58;;;;;;;6.10;1.22;;;;;;;37.52;24.48;99070.78;1768802;80;21073;-85
2022/08/11 13:26:25;;;;;;;3.22;1.20;;;;;;;37.75;21.75;99076.27;1771328;80;21042;-83
2022/08/11 13:28:52;;;;;;;2.52;1.45;;;;;;;38.03;23.98;99079.98;1770106;80;21061;-85
2022/08/11 13:31:19;;;;;;;1.95;1.40;;;;;;;38.43;23.54;99075.69;1769654;79;21002;-85
2022/08/11 13:33:51;;;;;;;3.60;1.30;;;;;;;38.74;20.08;99082.17;1771288;80;21046;-85
2022/08/11 13:36:26;;;;;;;2.10;1.32;;;;;;;39.14;22.21;99080.47;1770861;81;21065;-83
2022/08/11 13:38:54;;;;;;;1.80;1.20;;;;;;;38.82;22.29;99081.03;1769540;80;21060;-83
2022/08/11 13:41:38;;;;;;;1.40;1.10;;;;;;;38.91;22.03;99079.17;1762325;81;21033;-81
2022/08/11 13:44:07;;;;;;;2.58;1.30;;;;;;;38.74;21.86;99070.77;1772446;81;21482;-86
2022/08/11 13:46:34;;;;;;;3.45;1.75;;;;;;;38.94;21.82;99073.31;1760369;81;21597;-82
2022/08/11 13:49:02;;;;;;;2.45;1.40;;;;;;;39.37;22.00;99067.55;1766312;81;21042;-85
2022/08/11 13:51:32;;;;;;;2.25;1.20;;;;;;;39.69;20.10;99069.59;1762795;81;21045;-85
2022/08/11 13:54:06;;;;;;;2.60;1.35;;;;;;;39.89;20.46;99067.17;1768511;81;21045;-81
2022/08/11 13:56:35;;;;;;;3.05;1.40;;;;;;;39.62;19.83;99072.95;1768860;79;21088;-83
2022/08/11 13:59:03;;;;;;;1.90;1.30;;;;;;;38.91;20.37;99071.02;1763752;81;21049;-86
2022/08/11 14:01:33;;;;;;;2.58;1.40;;;;;;;39.03;20.75;99062.17;1772434;79;21073;-81
2022/08/11 14:04:08;;;;;;;3.45;1.30;;;;;;;39.15;21.26;99062.55;1769242;81;21026;-86
2022/08/11 14:06:37;;;;;;;3.17;1.42;;;;;;;39.35;21.16;99069.13;1723337;82;21010;-82
2022/08/11 14:09:10;;;;;;;3.55;1.20;;;;;;;39.42;20.94;99064.17;1715696;82;21038;-85
2022/08/11 14:14:29;;;;;;;1.92;1.17;;;;;;;39.62;19.99;99057.98;1769696;81;21002;-85
2022/08/11 14:16:57;;;;;;;2.20;1.20;;;;;;;39.75;19.05;99055.09;1770457;81;21097;-84
2022/08/11 14:19:27;;;;;;;2.67;1.47;;;;;;;39.51;18.81;99058.73;1771045;81;20998;-82
2022/08/11 14:22:06;;;;;;;2.52;1.50;;;;;;;39.57;20.31;99051.88;1768711;81;21581;-85
2022/08/11 14:24:40;;;;;;;1.67;1.20;;;;;;;39.55;19.67;99051.78;1761209;81;21093;-85
2022/08/11 14:27:10;;;;;;;2.90;1.60;;;;;;;39.19;18.77;99047.45;1766095;81;21022;-81
2022/08/11 14:29:40;;;;;;;1.60;1.00;;;;;;;39.18;19.83;99051.24;1744059;81;21049;-82
2022/08/11 14:32:10;;;;;;;2.33;1.30;;;;;;;39.31;20.27;99052.14;1763721;79;21506;-81
2022/08/11 14:34:43;;;;;;;2.83;1.30;;;;;;;39.25;20.19;99044.89;1765733;80;21505;-81
2022/08/11 14:37:14;;;;;;;2.00;1.10;;;;;;;39.27;20.45;99046.32;1769730;80;21037;-81
2022/08/11 14:39:43;;;;;;;;;;;;;;;38.96;19.88;99041.30;1771227;81;21054;-83
2022/08/11 14:48:02;;;;;;;2.12;1.27;;;;;;;38.43;20.41;99036.31;1768878;81;21493;-84
2022/08/11 14:50:32;;;;;;;2.33;1.40;;;;;;;38.39;20.54;99030.48;1771654;80;21023;-83
2022/08/11 14:53:09;;;;;;;3.70;1.25;;;;;;;38.01;20.48;99042.73;1767412;81;21077;-85
2022/08/11 14:58:29;;;;;;;2.70;1.20;;;;;;;37.48;21.02;99039.72;1772569;81;20962;-84
2022/08/11 15:00:58;;;;;;;2.80;1.50;;;;;;;36.58;21.20;99033.49;1733296;80;21058;-81
2022/08/11 15:03:27;;;;;;;2.90;1.42;;;;;;;35.86;21.33;99030.16;1743203;79;21049;-82
2022/08/11 15:06:00;;;;;;;6.17;2.10;;;;;;;35.06;21.58;99034.63;1660555;85;21034;-81
2022/08/11 15:14:10;;;;;;;4.03;2.00;;;;;;;33.39;23.58;99026.72;1642766;85;21104;-82
2022/08/11 15:19:30;;;;;;;2.92;1.52;;;;;;;33.00;24.73;99027.27;1657005;86;21526;-81
2022/08/11 15:24:42;;;;;;;3.20;1.42;;;;;;;32.96;24.65;99029.18;1657774;85;21098;-81
2022/08/11 15:38:23;;;;;;;9.25;2.33;;;;;;;31.04;26.53;99022.11;1658391;85;21036;-79
2022/08/11 15:46:36;;;;;;;2.98;1.85;;;;;;;29.91;28.84;99017.89;1658344;85;21049;-79
2022/08/11 15:49:16;;;;;;;3.58;1.98;;;;;;;29.77;28.53;99018.03;1677833;85;21054;-79
2022/08/11 15:51:51;;;;;;;3.00;1.70;;;;;;;29.61;28.73;99013.94;1658243;85;21090;-79
2022/08/11 15:54:22;;;;;;;3.35;1.90;;;;;;;29.39;29.24;99014.86;1657957;85;21033;-79
2022/08/11 15:56:53;;;;;;;6.30;1.60;;;;;;;29.39;29.60;99009.50;1658210;85;21084;-81
2022/08/11 16:05:02;;;;;;;3.08;1.85;;;;;;;29.72;29.25;99012.31;1691554;84;21089;-80
2022/08/11 16:07:34;;;;;;;3.02;1.55;;;;;;;29.80;28.91;99005.63;1665864;84;21140;-79
2022/08/11 16:10:18;;;;;;;2.90;1.62;;;;;;;29.85;29.02;99014.03;1631540;88;21048;-81
2022/08/11 16:18:41;;;;;;;2.33;1.42;;;;;;;29.84;28.70;99008.31;1676139;85;21030;-80
2022/08/11 16:21:16;;;;;;;4.80;2.00;;;;;;;29.82;28.40;99003.63;1658108;85;21041;-81
2022/08/11 16:23:46;;;;;;;5.12;1.95;;;;;;;29.78;28.69;99014.33;1658293;85;21654;-81
2022/08/11 16:26:17;;;;;;;4.45;1.80;;;;;;;29.83;28.91;99012.02;1658368;85;21087;-79
2022/08/11 16:28:45;;;;;;;2.58;1.70;;;;;;;29.86;29.28;99012.17;1679793;85;21138;-81
2022/08/11 16:31:14;;;;;;;5.12;1.60;;;;;;;29.93;29.47;99016.72;1684043;85;21025;-79
2022/08/11 16:33:43;;;;;;;5.70;1.57;;;;;;;29.97;29.53;99011.05;1663560;85;20985;-80
2022/08/11 16:38:57;;;;;;;2.20;1.30;;;;;;;29.97;28.97;99009.70;1665425;85;21068;-80
2022/08/11 16:47:05;;;;;;;4.08;1.95;;;;;;;29.95;29.30;99019.23;1660954;85;21036;-82
2022/08/11 16:49:41;;;;;;;4.42;1.90;;;;;;;29.98;29.33;99018.06;1658647;85;21060;-81
2022/08/11 16:52:10;;;;;;;5.90;2.77;;;;;;;29.94;29.25;99020.23;1657651;85;21085;-80
2022/08/11 16:54:38;;;;;;;8.65;4.00;;;;;;;29.86;29.41;99022.38;1632798;85;21575;-81
2022/08/11 16:59:57;;;;;;;3.35;2.05;;;;;;;29.87;29.75;99021.39;1642927;85;21036;-81
2022/08/11 17:14:01;;;;;;;6.83;3.40;;;;;;;29.06;30.70;99027.20;1681996;85;21138;-79
2022/08/11 17:16:32;;;;;;;8.18;3.40;;;;;;;28.72;30.96;99023.48;1653400;85;21982;-80
2022/08/11 17:19:09;;;;;;;5.45;2.85;;;;;;;28.45;31.49;99026.24;1638948;85;21584;-81
2022/08/11 17:24:32;;;;;;;5.25;2.22;;;;;;;27.93;32.90;99029.61;1657582;85;21061;-80
2022/08/11 17:27:00;;;;;;;6.37;2.62;;;;;;;27.69;33.09;99028.31;1675509;85;21053;-79
2022/08/11 17:29:49;;;;;;;4.80;1.98;;;;;;;27.51;33.32;99034.12;1657609;85;21081;-80
2022/08/11 17:35:29;;;;;;;3.58;1.80;;;;;;;27.05;34.05;99028.66;1657678;85;20994;-79
2022/08/11 17:38:18;;;;;;;5.90;2.20;;;;;;;26.79;33.72;99031.95;1657245;85;21084;-79
2022/08/11 17:49:14;;;;;;;4.62;2.17;;;;;;;25.82;35.99;99038.55;1657547;85;21541;-79
2022/08/11 18:00:04;;;;;;;5.70;2.05;;;;;;;25.26;37.28;99059.88;1657680;85;21545;-79
2022/08/11 18:05:30;;;;;;;6.33;2.20;;;;;;;24.97;38.44;99063.70;1657238;85;21658;-80
